Time;durP1;ratioP1;P1;durP2;ratioP2;P2;SDS_P1;SDS_P2;PMS_P1;PMS_P2;Temp;Humidity;BMP_temperature;BMP_pressure;BME280_temperature;BME280_humidity;BME280_pressure;Samples;Min_cycle;Max_cycle;Signal;HPM_P1;HPM_P2
2022/09/16 00:00:09;;;;;;;7.10;3.00;;;;;;;24.07;49.97;98094.72;4981874;28;20030;-79
2022/09/16 00:02:34;;;;;;;6.73;3.13;;;;;;;24.02;50.15;98090.88;5015626;28;20053;-81
2022/09/16 00:05:00;;;;;;;5.40;2.72;;;;;;;24.01;50.21;98104.41;4965484;28;20064;-81
2022/09/16 00:07:25;;;;;;;5.07;2.60;;;;;;;24.05;50.12;98091.47;4981048;28;20041;-83
2022/09/16 00:09:51;;;;;;;3.45;2.55;;;;;;;24.03;50.11;98089.81;4997615;28;20417;-82
2022/09/16 00:12:16;;;;;;;8.77;2.72;;;;;;;24.07;49.82;98102.72;4981168;28;20036;-82
2022/09/16 00:14:42;;;;;;;5.60;3.00;;;;;;;24.03;49.75;98094.34;4965414;28;20034;-81
2022/09/16 00:17:07;;;;;;;5.90;2.70;;;;;;;24.00;50.13;98098.28;4997008;28;20041;-81
2022/09/16 00:19:33;;;;;;;3.85;2.70;;;;;;;23.96;49.83;98101.59;4964750;28;20044;-82
2022/09/16 00:21:58;;;;;;;6.45;2.80;;;;;;;23.94;49.82;98095.66;4981317;28;20060;-82
2022/09/16 00:24:23;;;;;;;6.35;2.88;;;;;;;23.96;49.63;98101.59;5011151;28;20049;-82
2022/09/16 00:26:49;;;;;;;3.60;2.45;;;;;;;23.94;49.74;98101.81;5016761;28;20108;-83
2022/09/16 00:29:14;;;;;;;5.57;2.67;;;;;;;23.91;50.07;98096.09;4984522;28;20049;-82
2022/09/16 00:31:40;;;;;;;5.55;2.85;;;;;;;23.92;49.85;98103.06;5035504;28;20033;-81
2022/09/16 00:34:06;;;;;;;5.20;2.70;;;;;;;23.88;49.66;98096.53;5001872;28;20029;-81
2022/09/16 00:36:31;;;;;;;7.45;2.50;;;;;;;23.87;49.75;98092.25;5017692;28;20080;-81
2022/09/16 00:38:57;;;;;;;4.05;2.60;;;;;;;23.87;49.87;98089.59;4983924;28;20045;-81
2022/09/16 00:41:27;;;;;;;7.43;2.70;;;;;;;23.82;49.73;98090.22;4983954;28;20542;-82
2022/09/16 00:44:00;;;;;;;7.47;2.80;;;;;;;23.81;49.84;98100.03;5016751;28;20034;-82
2022/09/16 00:46:39;;;;;;;4.80;2.65;;;;;;;23.83;49.97;98098.00;5000641;28;20120;-81
2022/09/16 00:49:24;;;;;;;6.07;2.53;;;;;;;23.83;50.13;98098.00;5000005;28;20072;-82
2022/09/16 00:51:50;;;;;;;3.22;2.45;;;;;;;23.82;50.34;98092.88;5000792;28;20029;-82
2022/09/16 00:54:16;;;;;;;4.82;2.70;;;;;;;23.77;50.20;98100.72;5000108;28;20036;-81
2022/09/16 00:56:42;;;;;;;3.97;2.63;;;;;;;23.81;50.02;98091.22;5016787;28;20041;-81
2022/09/16 00:59:16;;;;;;;7.03;3.20;;;;;;;23.74;50.17;98090.50;4983639;28;20037;-82
2022/09/16 01:01:43;;;;;;;7.15;3.20;;;;;;;23.76;50.26;98096.41;5016110;28;20124;-81
2022/09/16 01:04:36;;;;;;;7.32;2.70;;;;;;;23.74;50.21;98106.47;4999773;28;20049;-82
2022/09/16 01:07:01;;;;;;;5.28;2.80;;;;;;;23.71;50.16;98109.56;4997299;28;20040;-81
2022/09/16 01:09:28;;;;;;;5.75;2.80;;;;;;;23.68;50.48;98110.81;4999503;28;20033;-81
2022/09/16 01:11:53;;;;;;;4.25;2.58;;;;;;;23.68;50.36;98113.47;4999860;28;20021;-81
2022/09/16 01:17:22;;;;;;;5.13;2.90;;;;;;;23.63;50.19;98114.13;5018737;28;20413;-81
2022/09/16 01:20:30;;;;;;;7.55;3.30;;;;;;;23.57;50.50;98116.84;4999552;28;20040;-82
2022/09/16 01:23:21;;;;;;;7.10;2.92;;;;;;;23.60;50.38;98122.53;4953058;29;20475;-82
2022/09/16 01:26:17;;;;;;;5.10;3.05;;;;;;;23.61;50.33;98126.00;4877584;29;20067;-82
2022/09/16 01:28:46;;;;;;;7.07;3.35;;;;;;;23.59;50.50;98118.25;4877535;29;20041;-81
2022/09/16 01:31:16;;;;;;;4.95;2.80;;;;;;;23.57;50.37;98119.50;4877404;29;20061;-83
2022/09/16 01:34:03;;;;;;;7.43;3.10;;;;;;;23.56;50.57;98120.53;4877899;29;20044;-82
2022/09/16 01:36:30;;;;;;;9.30;2.85;;;;;;;23.55;50.44;98125.03;4878757;29;20041;-81
2022/09/16 01:38:56;;;;;;;9.00;2.90;;;;;;;23.52;50.59;98122.00;4873730;29;20537;-81
2022/09/16 01:41:36;;;;;;;9.82;3.10;;;;;;;23.49;50.64;98126.72;4858001;29;20133;-83
2022/09/16 01:44:35;;;;;;;5.75;2.83;;;;;;;23.47;50.48;98117.31;4874250;29;20046;-81
2022/09/16 01:47:17;;;;;;;4.00;2.67;;;;;;;23.46;50.64;98127.16;4872092;29;20042;-82
2022/09/16 01:49:46;;;;;;;6.32;3.00;;;;;;;23.37;50.77;98115.13;4872472;29;20045;-82
2022/09/16 01:52:22;;;;;;;5.90;2.97;;;;;;;23.39;50.76;98122.88;4858194;29;20134;-82
2022/09/16 01:54:58;;;;;;;5.63;2.72;;;;;;;23.34;50.79;98117.41;4874092;29;20053;-82
2022/09/16 01:57:45;;;;;;;6.22;3.10;;;;;;;23.35;50.68;98127.03;4888608;29;20482;-81
2022/09/16 02:00:12;;;;;;;7.00;3.25;;;;;;;23.31;50.66;98121.31;4929595;29;20040;-82
2022/09/16 02:02:40;;;;;;;8.38;3.13;;;;;;;23.33;50.83;98126.44;4985011;28;20125;-84
2022/09/16 02:05:09;;;;;;;8.27;3.25;;;;;;;23.28;51.06;98125.22;4995673;28;20088;-82
2022/09/16 02:07:37;;;;;;;6.05;3.05;;;;;;;23.28;50.82;98129.72;4979392;28;20034;-82
2022/09/16 02:10:28;;;;;;;3.97;2.55;;;;;;;23.28;50.83;98127.06;4979399;28;20125;-82
2022/09/16 02:12:56;;;;;;;7.10;2.88;;;;;;;23.29;50.67;98121.53;4995614;28;20068;-82
2022/09/16 02:15:22;;;;;;;;;;;;;;;23.34;50.66;98120.91;4979985;28;20034;-82
2022/09/16 02:18:11;;;;;;;6.75;2.83;;;;;;;23.32;50.52;98116.81;4979155;28;19913;-82
2022/09/16 02:20:39;;;;;;;12.65;2.92;;;;;;;23.32;50.79;98109.63;4951817;28;20038;-83
2022/09/16 02:23:20;;;;;;;6.97;3.13;;;;;;;23.28;50.76;98111.09;4952451;28;20059;-82
2022/09/16 02:25:46;;;;;;;7.18;3.08;;;;;;;23.29;50.85;98118.03;4954438;28;20038;-82
2022/09/16 02:28:15;;;;;;;7.65;2.92;;;;;;;23.30;50.75;98125.00;4968267;28;20077;-83
2022/09/16 02:30:44;;;;;;;5.95;2.72;;;;;;;23.29;50.77;98120.69;4935941;29;20475;-82
2022/09/16 02:33:09;;;;;;;7.20;2.78;;;;;;;23.26;50.84;98123.78;4936365;29;20035;-83
2022/09/16 02:35:36;;;;;;;9.05;2.72;;;;;;;23.25;50.64;98124.84;4936225;29;20042;-83
2022/09/16 02:38:05;;;;;;;5.35;3.10;;;;;;;23.25;50.65;98130.97;4919280;29;20042;-82
2022/09/16 02:40:34;;;;;;;6.90;2.60;;;;;;;23.25;50.60;98132.81;4950347;29;20031;-84
2022/09/16 02:42:59;;;;;;;7.35;2.83;;;;;;;23.19;50.52;98129.16;4935762;29;20502;-81
2022/09/16 02:45:48;;;;;;;7.28;2.70;;;;;;;23.19;50.58;98128.34;4951498;29;20111;-81
2022/09/16 02:48:19;;;;;;;7.38;2.42;;;;;;;23.16;50.41;98115.47;4935261;29;20045;-84
2022/09/16 02:50:51;;;;;;;7.25;2.63;;;;;;;23.16;50.09;98121.59;4951286;29;20055;-81
2022/09/16 02:53:28;;;;;;;6.97;2.63;;;;;;;23.23;50.03;98132.19;4937293;28;20039;-81
2022/09/16 02:55:56;;;;;;;4.53;2.33;;;;;;;23.22;49.82;98131.41;4970555;28;20154;-81
2022/09/16 02:58:21;;;;;;;7.70;2.72;;;;;;;23.16;49.88;98137.56;4989524;28;20037;-81
2022/09/16 03:00:50;;;;;;;9.13;2.40;;;;;;;23.20;49.77;98140.63;4997442;28;20037;-82
2022/09/16 03:03:16;;;;;;;7.20;2.70;;;;;;;23.11;50.05;98138.19;4997848;28;20032;-81
2022/09/16 03:06:17;;;;;;;6.45;2.75;;;;;;;23.15;49.97;98143.94;5013953;28;20048;-82
2022/09/16 03:08:43;;;;;;;4.22;2.45;;;;;;;23.12;50.03;98142.50;5013254;28;20026;-81
2022/09/16 03:11:27;;;;;;;4.40;2.50;;;;;;;23.15;49.97;98140.44;4997857;28;20504;-81
2022/09/16 03:14:14;;;;;;;5.70;2.42;;;;;;;23.20;50.24;98140.63;5013653;28;20117;-81
2022/09/16 03:17:15;;;;;;;6.43;2.88;;;;;;;23.23;50.08;98134.88;5013382;28;20088;-81
2022/09/16 03:19:46;;;;;;;5.00;2.83;;;;;;;23.25;49.76;98128.31;4931502;29;20055;-82
2022/09/16 03:22:23;;;;;;;5.30;2.75;;;;;;;23.25;50.16;98127.50;4931759;29;20051;-81
2022/09/16 03:25:10;;;;;;;8.73;2.60;;;;;;;23.26;49.96;98134.44;4901219;29;20079;-81
2022/09/16 03:27:41;;;;;;;5.65;2.50;;;;;;;23.25;49.62;98130.97;4917941;29;20058;-81
2022/09/16 03:30:09;;;;;;;5.43;2.50;;;;;;;23.24;49.75;98139.97;4916052;29;20503;-82
2022/09/16 03:32:48;;;;;;;5.37;3.00;;;;;;;23.20;49.58;98133.47;4931846;29;20488;-81
2022/09/16 03:35:22;;;;;;;5.50;2.55;;;;;;;23.25;49.44;98138.97;4932964;29;20059;-83
2022/09/16 03:37:48;;;;;;;6.72;2.42;;;;;;;23.26;49.48;98132.63;4916169;29;20106;-81
2022/09/16 03:40:14;;;;;;;6.07;2.30;;;;;;;23.27;49.32;98138.75;4906179;29;20036;-82
2022/09/16 03:42:41;;;;;;;6.55;2.63;;;;;;;23.25;49.17;98138.97;4927879;29;20123;-81
2022/09/16 03:45:08;;;;;;;7.80;2.53;;;;;;;23.24;49.20;98124.00;4917853;29;20032;-85
2022/09/16 03:47:34;;;;;;;7.43;2.38;;;;;;;23.26;49.36;98121.13;4884998;29;20062;-82
2022/09/16 03:49:59;;;;;;;8.85;2.50;;;;;;;23.25;49.61;98114.19;4931799;29;20043;-80
2022/09/16 03:52:25;;;;;;;10.82;2.90;;;;;;;23.20;49.37;98103.34;4915103;29;20138;-82
2022/09/16 03:54:50;;;;;;;6.70;2.60;;;;;;;23.23;49.61;98108.25;4916056;29;20492;-82
2022/09/16 03:57:16;;;;;;;6.65;2.25;;;;;;;23.25;49.19;98107.00;4993307;28;20034;-79
2022/09/16 03:59:41;;;;;;;6.53;2.40;;;;;;;23.24;49.40;98112.53;4977443;28;20421;-82
2022/09/16 04:02:07;;;;;;;4.80;2.33;;;;;;;23.23;49.39;98109.06;4977549;28;20501;-80
2022/09/16 04:04:33;;;;;;;13.82;3.10;;;;;;;23.36;50.93;98132.13;5012804;28;20072;-75
2022/09/16 04:06:58;;;;;;;5.70;2.50;;;;;;;23.54;50.59;98127.94;4980615;28;20054;-75
2022/09/16 04:09:24;;;;;;;5.40;2.38;;;;;;;23.66;49.72;98121.69;4980661;28;20505;-75
2022/09/16 04:11:49;;;;;;;12.63;2.72;;;;;;;23.87;49.64;98132.22;4964338;28;20049;-74
2022/09/16 04:14:15;;;;;;;7.60;2.65;;;;;;;23.97;49.04;98140.53;4964296;28;20048;-76
2022/09/16 04:16:40;;;;;;;10.07;2.78;;;;;;;24.08;48.58;98136.34;4964488;28;20474;-75
2022/09/16 04:19:06;;;;;;;9.00;2.15;;;;;;;24.25;48.09;98145.41;4996615;28;20127;-76
2022/09/16 04:21:32;;;;;;;6.53;2.15;;;;;;;24.39;48.12;98144.25;5002842;28;20033;-78
2022/09/16 04:23:57;;;;;;;12.15;2.50;;;;;;;24.61;47.08;98137.69;4983136;28;20102;-74
2022/09/16 04:26:23;;;;;;;20.65;3.17;;;;;;;24.79;46.33;98137.69;5015906;28;20103;-75
2022/09/16 04:28:51;;;;;;;21.10;2.65;;;;;;;25.01;45.95;98139.88;4999658;28;20044;-75
2022/09/16 04:31:16;;;;;;;15.25;2.20;;;;;;;25.27;45.42;98141.41;4967751;28;20036;-75
2022/09/16 04:33:42;;;;;;;9.70;2.25;;;;;;;25.48;45.40;98139.28;4996107;28;20464;-74
2022/09/16 04:36:12;;;;;;;10.02;2.70;;;;;;;25.63;44.67;98155.69;4980455;28;20022;-75
2022/09/16 04:38:38;;;;;;;10.85;2.47;;;;;;;25.72;44.32;98154.31;4963424;28;20065;-76
2022/09/16 04:41:15;;;;;;;14.02;3.08;;;;;;;25.80;44.46;98153.16;4979472;28;20485;-76
2022/09/16 04:43:41;;;;;;;7.22;2.50;;;;;;;25.86;44.27;98154.94;4964689;28;20034;-76
2022/09/16 04:46:06;;;;;;;7.85;2.80;;;;;;;25.69;44.44;98156.66;4964125;28;20052;-77
2022/09/16 04:48:32;;;;;;;7.57;3.20;;;;;;;25.82;43.93;98154.59;4963448;28;20456;-78
2022/09/16 04:51:05;;;;;;;8.02;2.95;;;;;;;25.84;44.02;98157.03;4963921;28;20481;-77
2022/09/16 04:53:30;;;;;;;6.10;3.13;;;;;;;26.06;43.56;98160.00;4979878;28;20034;-77
2022/09/16 04:56:06;;;;;;;10.73;3.45;;;;;;;26.81;42.16;98162.97;4964104;28;20026;-76
2022/09/16 04:58:32;;;;;;;10.77;2.92;;;;;;;27.33;40.94;98154.09;4963617;28;20040;-78
2022/09/16 05:01:11;;;;;;;6.30;3.10;;;;;;;27.87;40.08;98159.03;4963068;28;20031;-77
2022/09/16 05:03:38;;;;;;;9.88;2.90;;;;;;;28.29;38.92;98145.22;4976732;28;20096;-78
2022/09/16 05:06:05;;;;;;;11.13;2.90;;;;;;;28.57;38.61;98143.44;4994504;28;20076;-78
2022/09/16 05:08:34;;;;;;;12.13;3.20;;;;;;;29.11;37.27;98154.31;4962518;28;20030;-78
2022/09/16 05:11:04;;;;;;;9.68;2.92;;;;;;;29.44;36.82;98144.47;4978649;28;20030;-79
2022/09/16 05:13:29;;;;;;;12.68;2.90;;;;;;;30.10;36.02;98159.59;4978776;28;20092;-79
2022/09/16 05:15:55;;;;;;;8.32;2.95;;;;;;;30.62;34.98;98166.91;4994172;28;20030;-78
2022/09/16 05:18:20;;;;;;;11.48;2.72;;;;;;;30.98;34.04;98152.81;5013021;28;20041;-80
2022/09/16 05:20:46;;;;;;;10.57;2.78;;;;;;;31.10;33.77;98155.28;4978962;28;20072;-79
2022/09/16 05:23:12;;;;;;;11.65;3.13;;;;;;;30.80;34.14;98149.47;4980181;28;20092;-79
2022/09/16 05:25:37;;;;;;;10.10;3.03;;;;;;;30.69;34.12;98136.25;4995664;28;20030;-78
2022/09/16 05:28:03;;;;;;;14.57;3.22;;;;;;;30.57;33.93;98128.38;4995521;28;20111;-79
2022/09/16 05:30:28;;;;;;;20.65;2.90;;;;;;;30.82;33.69;98131.19;4979031;28;20060;-79
2022/09/16 05:32:54;;;;;;;16.98;3.63;;;;;;;31.00;33.76;98145.28;4962742;28;20042;-82
2022/09/16 05:35:20;;;;;;;16.70;3.80;;;;;;;31.35;33.40;98141.84;4963522;28;20026;-77
2022/09/16 05:37:45;;;;;;;11.73;3.30;;;;;;;31.52;32.88;98128.13;4978703;28;20025;-78
2022/09/16 05:40:11;;;;;;;20.55;3.45;;;;;;;31.74;32.72;98127.09;4963286;28;20417;-77
2022/09/16 05:42:36;;;;;;;20.85;3.80;;;;;;;32.10;31.63;98124.34;4962072;28;20556;-77
2022/09/16 05:45:02;;;;;;;22.05;4.00;;;;;;;32.77;30.90;98129.59;5012849;28;20029;-79
2022/09/16 05:47:27;;;;;;;25.45;4.05;;;;;;;32.80;30.55;98120.94;4979380;28;20194;-80
2022/09/16 05:49:53;;;;;;;32.03;4.00;;;;;;;32.22;32.20;98118.69;4964043;28;20037;-79
2022/09/16 05:52:19;;;;;;;17.63;4.57;;;;;;;31.82;32.63;98114.91;4994710;28;20444;-81
2022/09/16 05:54:44;;;;;;;24.25;4.40;;;;;;;31.66;32.99;98117.63;4979002;28;20087;-80
2022/09/16 05:57:10;;;;;;;20.27;4.43;;;;;;;31.44;33.08;98125.13;4979468;28;20026;-82
2022/09/16 05:59:36;;;;;;;20.52;4.82;;;;;;;31.33;33.19;98118.94;4978747;28;20120;-80
2022/09/16 06:02:02;;;;;;;18.52;4.38;;;;;;;31.07;33.59;98123.47;4995364;28;20033;-77
2022/09/16 06:04:27;;;;;;;17.70;3.90;;;;;;;31.27;33.22;98126.19;5001281;28;20033;-75
2022/09/16 06:06:53;;;;;;;20.13;4.10;;;;;;;31.26;33.32;98121.88;5020839;28;20033;-75
2022/09/16 06:09:20;;;;;;;23.33;4.57;;;;;;;30.80;34.05;98127.91;4986370;28;20029;-79
2022/09/16 06:11:48;;;;;;;24.27;8.07;;;;;;;30.56;34.04;98130.25;4967606;28;20088;-77
2022/09/16 06:14:13;;;;;;;15.27;4.80;;;;;;;30.45;34.12;98126.69;4986263;28;20041;-77
2022/09/16 06:16:39;;;;;;;23.08;6.55;;;;;;;30.57;34.30;98114.91;4971375;28;20412;-76
2022/09/16 06:19:09;;;;;;;29.35;6.05;;;;;;;31.25;33.36;98114.88;4985161;28;20036;-77
2022/09/16 06:21:35;;;;;;;28.33;6.60;;;;;;;30.91;33.50;98120.69;4971149;28;20578;-77
2022/09/16 06:24:00;;;;;;;27.17;5.40;;;;;;;31.62;32.60;98118.44;4971691;28;20124;-77
2022/09/16 06:26:26;;;;;;;30.30;7.03;;;;;;;32.52;31.19;98125.88;5018856;28;20452;-76
2022/09/16 06:28:52;;;;;;;23.02;5.93;;;;;;;33.36;29.88;98125.22;4970556;28;20041;-78
2022/09/16 06:31:23;;;;;;;26.05;5.03;;;;;;;34.12;28.46;98125.69;4989541;28;20025;-76
2022/09/16 06:33:50;;;;;;;32.45;4.90;;;;;;;34.74;28.13;98116.88;4987828;28;20047;-79
2022/09/16 06:36:17;;;;;;;17.70;4.47;;;;;;;35.33;27.27;98117.50;5002877;28;20120;-80
2022/09/16 06:38:43;;;;;;;26.33;6.45;;;;;;;35.59;26.38;98112.44;4990187;28;20165;-79
2022/09/16 06:41:10;;;;;;;23.20;5.07;;;;;;;36.16;25.67;98117.72;4988452;28;20033;-78
2022/09/16 06:43:38;;;;;;;23.90;4.97;;;;;;;36.60;25.19;98122.91;4970410;28;20021;-81
2022/09/16 06:46:05;;;;;;;24.13;4.70;;;;;;;36.99;24.62;98132.41;4971806;28;20033;-77
2022/09/16 06:48:32;;;;;;;26.80;4.95;;;;;;;37.18;24.19;98138.53;4985630;28;20040;-74
2022/09/16 06:51:04;;;;;;;34.55;4.78;;;;;;;37.24;24.59;98133.78;5020984;28;20048;-77
2022/09/16 06:53:30;;;;;;;23.65;5.80;;;;;;;37.45;24.12;98148.53;4988090;28;20112;-77
2022/09/16 06:56:02;;;;;;;25.27;5.93;;;;;;;37.72;23.25;98144.13;4985061;28;20481;-78
2022/09/16 06:58:30;;;;;;;38.95;6.60;;;;;;;37.85;23.14;98150.59;4987084;28;20085;-79
2022/09/16 07:00:56;;;;;;;32.08;5.72;;;;;;;38.09;22.99;98150.25;4970432;28;20095;-78
2022/09/16 07:03:22;;;;;;;33.97;5.72;;;;;;;38.27;23.07;98145.72;4971365;28;20439;-76
2022/09/16 07:05:57;;;;;;;24.55;5.85;;;;;;;38.47;23.03;98138.88;4969150;28;20555;-77
2022/09/16 07:08:23;;;;;;;22.90;5.55;;;;;;;38.66;22.46;98137.84;4984539;28;20030;-75
2022/09/16 07:11:00;;;;;;;21.67;5.32;;;;;;;38.73;22.75;98149.09;5020500;28;20500;-77
2022/09/16 07:13:26;;;;;;;;;;;;;;;38.91;22.16;98142.53;5004622;28;20022;-78
2022/09/16 07:15:51;;;;;;;27.55;5.45;;;;;;;39.12;21.70;98146.63;4986418;28;20395;-77
2022/09/16 07:18:18;;;;;;;14.70;4.72;;;;;;;39.28;21.51;98146.94;5001980;28;20033;-80
2022/09/16 07:20:44;;;;;;;25.20;4.95;;;;;;;39.46;21.19;98143.09;4971266;28;20079;-78
2022/09/16 07:23:09;;;;;;;19.38;4.63;;;;;;;39.58;20.83;98140.53;4969006;28;20064;-79
2022/09/16 07:25:36;;;;;;;20.38;4.80;;;;;;;39.65;20.71;98140.03;4977828;28;20045;-78
2022/09/16 07:28:02;;;;;;;20.42;4.80;;;;;;;39.83;20.40;98138.06;4997657;28;20021;-76
2022/09/16 07:30:29;;;;;;;17.00;4.90;;;;;;;40.00;20.42;98144.66;5014267;28;20060;-77
2022/09/16 07:32:55;;;;;;;21.50;4.78;;;;;;;40.10;20.00;98142.34;4997444;28;20037;-77
2022/09/16 07:35:22;;;;;;;17.88;4.13;;;;;;;40.11;20.64;98143.97;4997896;28;20536;-77
2022/09/16 07:37:47;;;;;;;15.32;4.68;;;;;;;40.30;20.31;98142.78;4998034;28;20153;-78
2022/09/16 07:40:12;;;;;;;14.80;3.92;;;;;;;40.43;20.34;98136.28;4984960;28;20045;-75
2022/09/16 07:42:41;;;;;;;18.25;4.38;;;;;;;40.55;20.05;98132.88;5035467;28;20049;-78
2022/09/16 07:45:07;;;;;;;16.33;4.30;;;;;;;40.76;19.67;98143.84;5002141;28;20033;-76
2022/09/16 07:47:32;;;;;;;16.00;4.35;;;;;;;40.87;19.91;98125.91;5017763;28;20032;-74
2022/09/16 07:49:58;;;;;;;11.20;3.58;;;;;;;40.97;19.47;98129.41;4999290;28;20060;-76
2022/09/16 07:52:28;;;;;;;16.33;3.78;;;;;;;41.11;19.11;98126.41;4998875;28;20095;-74
2022/09/16 07:54:57;;;;;;;13.48;2.97;;;;;;;41.15;18.88;98122.66;5000234;28;20116;-76
2022/09/16 07:57:23;;;;;;;16.88;3.38;;;;;;;41.34;18.96;98129.59;4999890;28;20117;-76
2022/09/16 07:59:49;;;;;;;15.70;3.63;;;;;;;41.49;18.63;98126.25;5014457;28;20053;-77
2022/09/16 08:02:15;;;;;;;16.67;3.85;;;;;;;41.61;18.32;98127.41;4999197;28;20570;-76
2022/09/16 08:04:40;;;;;;;11.75;3.35;;;;;;;41.58;18.78;98118.75;5016227;28;20132;-78
2022/09/16 08:07:06;;;;;;;11.15;3.70;;;;;;;41.70;18.75;98118.00;5000842;28;20095;-76
2022/09/16 08:09:31;;;;;;;16.88;3.88;;;;;;;41.77;18.66;98109.25;5017513;28;20025;-77
2022/09/16 08:11:57;;;;;;;15.90;3.88;;;;;;;41.83;18.83;98118.03;4984560;28;20021;-77
2022/09/16 08:14:22;;;;;;;20.70;4.38;;;;;;;41.87;18.14;98121.72;5000354;28;20107;-76
2022/09/16 08:16:51;;;;;;;15.40;4.30;;;;;;;41.91;18.65;98115.22;4984292;28;20046;-76
2022/09/16 08:19:16;;;;;;;25.63;4.32;;;;;;;41.95;18.87;98104.34;5001348;28;20116;-76
2022/09/16 08:21:42;;;;;;;14.73;3.63;;;;;;;42.03;19.05;98108.13;5000469;28;20080;-77
2022/09/16 08:24:08;;;;;;;15.75;4.10;;;;;;;42.05;18.53;98109.41;4984290;28;20401;-76
2022/09/16 08:26:33;;;;;;;13.38;3.20;;;;;;;42.18;18.62;98106.69;4984732;28;20025;-73
2022/09/16 08:28:59;;;;;;;18.85;3.50;;;;;;;42.22;18.53;98102.91;5016210;28;20053;-76
2022/09/16 08:31:24;;;;;;;17.08;3.03;;;;;;;42.32;18.22;98106.34;4984580;28;20029;-78
2022/09/16 08:33:50;;;;;;;15.57;3.90;;;;;;;42.33;18.09;98091.50;5000630;28;20072;-77
2022/09/16 08:36:22;;;;;;;10.40;3.15;;;;;;;42.32;17.97;98095.38;4984167;28;20048;-76
2022/09/16 08:38:50;;;;;;;16.20;3.22;;;;;;;42.25;18.37;98090.47;5000432;28;20052;-75
2022/09/16 08:41:46;;;;;;;14.68;3.35;;;;;;;42.19;17.83;98100.84;4984421;28;20131;-76
2022/09/16 08:44:42;;;;;;;12.23;3.08;;;;;;;42.10;18.09;98094.69;5000652;28;20033;-75
2022/09/16 08:47:30;;;;;;;13.65;3.35;;;;;;;42.12;18.04;98082.22;5016633;28;20128;-74
2022/09/16 08:49:55;;;;;;;14.07;3.00;;;;;;;42.12;17.82;98086.91;5002638;28;20033;-76
2022/09/16 08:52:34;;;;;;;21.77;3.53;;;;;;;42.18;18.28;98095.72;5000459;28;20084;-77
2022/09/16 08:55:21;;;;;;;15.02;3.47;;;;;;;42.05;18.45;98090.22;4984531;28;20029;-76
2022/09/16 08:58:09;;;;;;;;;;;;;;;41.75;18.86;98076.72;5017233;28;20098;-75
2022/09/16 09:00:36;;;;;;;13.82;3.35;;;;;;;41.80;18.61;98083.09;4953995;29;19910;-75
2022/09/16 09:03:27;;;;;;;17.63;3.13;;;;;;;41.47;19.21;98081.19;4938201;29;20137;-77
2022/09/16 09:05:54;;;;;;;15.48;3.03;;;;;;;41.32;19.83;98075.19;4935830;29;20059;-75
2022/09/16 09:08:29;;;;;;;;;;;;;;;41.10;19.71;98065.38;4938184;29;20078;-76
2022/09/16 09:11:01;;;;;;;19.67;3.17;;;;;;;40.76;19.85;98067.25;4937786;29;20027;-75
2022/09/16 09:14:05;;;;;;;13.55;2.45;;;;;;;40.96;19.97;98068.41;4953246;29;20038;-76
2022/09/16 09:16:36;;;;;;;15.40;2.92;;;;;;;41.00;19.63;98055.63;4937556;29;20039;-76
2022/09/16 09:19:17;;;;;;;17.33;2.97;;;;;;;40.95;19.00;98066.78;4953440;29;20035;-75
2022/09/16 09:22:00;;;;;;;14.10;3.03;;;;;;;40.97;19.67;98064.50;4953539;29;20546;-74
2022/09/16 09:24:56;;;;;;;15.02;3.15;;;;;;;41.07;19.68;98057.84;4937285;29;20165;-74
2022/09/16 09:27:35;;;;;;;8.45;2.67;;;;;;;41.09;19.80;98060.22;4937647;29;20039;-76
2022/09/16 09:30:24;;;;;;;14.82;3.45;;;;;;;41.02;19.69;98047.09;4936842;29;20058;-75
2022/09/16 09:33:20;;;;;;;12.77;3.00;;;;;;;40.93;19.79;98044.44;4934591;29;20039;-78
2022/09/16 09:36:01;;;;;;;19.75;3.60;;;;;;;40.90;19.90;98045.13;4937294;29;20035;-78
2022/09/16 09:38:44;;;;;;;20.38;3.47;;;;;;;40.80;19.52;98037.25;5004088;28;20037;-76
2022/09/16 09:41:17;;;;;;;14.88;3.15;;;;;;;40.76;19.71;98033.63;4983906;28;20053;-77
2022/09/16 09:43:53;;;;;;;12.85;2.85;;;;;;;40.66;20.03;98023.84;4999181;28;20070;-76
2022/09/16 09:46:40;;;;;;;15.43;3.30;;;;;;;40.57;20.09;98020.41;4999107;28;20485;-76
2022/09/16 09:49:31;;;;;;;15.10;3.47;;;;;;;40.40;20.20;98019.34;4999093;28;20029;-77
2022/09/16 09:52:02;;;;;;;15.68;3.78;;;;;;;40.33;20.41;98006.22;4999368;28;20504;-78
2022/09/16 09:54:34;;;;;;;13.23;3.33;;;;;;;40.20;20.22;98020.94;4999171;28;20033;-75
2022/09/16 09:57:17;;;;;;;19.85;3.40;;;;;;;40.15;20.25;98015.63;4983289;28;20150;-75
2022/09/16 09:59:50;;;;;;;15.82;3.50;;;;;;;40.12;20.28;98006.19;4999520;28;20104;-78
2022/09/16 10:02:16;;;;;;;15.07;3.58;;;;;;;39.99;19.54;98009.94;5015598;28;20025;-78
2022/09/16 10:04:42;;;;;;;15.60;3.38;;;;;;;39.90;19.94;98006.41;4999171;28;20112;-77
2022/09/16 10:07:08;;;;;;;21.52;3.15;;;;;;;39.85;20.17;97996.47;4998410;28;20193;-77
2022/09/16 10:09:34;;;;;;;20.33;3.28;;;;;;;39.77;19.80;98002.78;5015255;28;20025;-79
2022/09/16 10:12:00;;;;;;;21.98;3.00;;;;;;;39.67;19.81;97993.03;4998786;28;20511;-77
2022/09/16 10:14:26;;;;;;;13.82;2.90;;;;;;;39.53;19.59;97984.25;4982874;28;20064;-76
2022/09/16 10:16:52;;;;;;;19.13;2.97;;;;;;;39.34;18.78;97985.41;5032852;28;20481;-80
2022/09/16 10:19:27;;;;;;;22.92;3.95;;;;;;;39.22;18.29;97983.34;4982115;28;20100;-76
2022/09/16 10:21:54;;;;;;;14.60;3.28;;;;;;;39.08;19.07;97982.75;4998643;28;20037;-74
2022/09/16 10:24:30;;;;;;;15.10;3.13;;;;;;;38.99;18.48;97992.84;5014823;28;20481;-77
2022/09/16 10:26:57;;;;;;;20.75;3.15;;;;;;;38.76;18.27;97981.28;4982086;28;20052;-79
2022/09/16 10:29:22;;;;;;;20.83;3.38;;;;;;;38.38;18.36;97966.31;5014622;28;20050;-76
2022/09/16 10:31:48;;;;;;;12.45;2.60;;;;;;;38.34;18.36;97968.91;4998437;28;20532;-76
2022/09/16 10:34:30;;;;;;;17.98;3.03;;;;;;;38.17;17.72;97966.94;4998287;28;20030;-75
2022/09/16 10:37:07;;;;;;;16.08;3.25;;;;;;;37.89;18.12;97951.94;4997393;28;20057;-75
2022/09/16 10:39:33;;;;;;;24.60;2.70;;;;;;;37.69;17.92;97961.50;5014434;28;20037;-75
2022/09/16 10:41:59;;;;;;;18.27;2.85;;;;;;;37.62;17.94;97940.13;5014426;28;20047;-75
2022/09/16 10:44:30;;;;;;;30.13;3.45;;;;;;;37.47;17.52;97960.41;4998499;28;20076;-76
2022/09/16 10:47:08;;;;;;;20.73;2.90;;;;;;;37.19;17.90;97944.22;4998064;28;20451;-77
2022/09/16 10:49:33;;;;;;;18.20;3.20;;;;;;;37.04;17.83;97953.59;4983310;28;20560;-76
2022/09/16 10:52:29;;;;;;;19.35;3.30;;;;;;;36.95;18.17;97947.28;5014964;28;20029;-77
2022/09/16 10:54:55;;;;;;;23.70;3.10;;;;;;;36.81;18.18;97949.28;4935906;29;20063;-77
2022/09/16 10:57:27;;;;;;;25.30;3.22;;;;;;;36.54;18.22;97940.09;4935885;29;20122;-76
2022/09/16 11:00:14;;;;;;;16.35;2.50;;;;;;;36.54;18.76;97940.88;4935923;29;20043;-78
2022/09/16 11:03:03;;;;;;;20.58;3.13;;;;;;;36.62;18.51;97950.22;4935854;29;20027;-77
2022/09/16 11:05:34;;;;;;;20.80;2.85;;;;;;;36.66;18.94;97948.50;4935711;29;20094;-77
2022/09/16 11:08:18;;;;;;;27.75;3.35;;;;;;;36.62;18.98;97944.00;4935647;29;20504;-76
2022/09/16 11:10:48;;;;;;;21.98;3.33;;;;;;;36.57;18.65;97934.81;4952147;29;20107;-80
2022/09/16 11:13:26;;;;;;;20.40;3.70;;;;;;;36.48;18.76;97939.38;4968955;28;20039;-77
2022/09/16 11:16:27;;;;;;;24.45;3.47;;;;;;;36.48;18.66;97935.88;4924505;29;20085;-75
2022/09/16 11:19:01;;;;;;;19.10;3.05;;;;;;;36.42;19.01;97932.50;4882562;29;20040;-76
2022/09/16 11:21:47;;;;;;;19.10;3.30;;;;;;;36.39;18.79;97930.38;4914905;29;20161;-77
2022/09/16 11:24:34;;;;;;;32.15;3.65;;;;;;;36.38;18.85;97931.47;4883004;29;20140;-75
2022/09/16 11:27:35;;;;;;;20.13;2.90;;;;;;;36.34;19.20;97925.88;4882694;29;20029;-75
2022/09/16 11:30:21;;;;;;;16.23;3.08;;;;;;;36.35;19.46;97923.94;4861475;29;20162;-77
2022/09/16 11:32:58;;;;;;;18.88;3.55;;;;;;;36.42;19.51;97929.78;4974757;28;20109;-74
2022/09/16 11:35:28;;;;;;;20.60;2.83;;;;;;;36.44;19.58;97913.16;4974635;28;20530;-76
2022/09/16 11:38:18;;;;;;;23.48;3.35;;;;;;;36.51;19.46;97910.81;4958397;28;20026;-76
2022/09/16 11:40:55;;;;;;;18.88;2.90;;;;;;;36.55;19.45;97911.81;4958246;28;20455;-77
2022/09/16 11:43:41;;;;;;;20.63;3.33;;;;;;;36.53;19.51;97903.97;4958464;28;20530;-75
2022/09/16 11:46:33;;;;;;;17.35;3.05;;;;;;;36.47;19.34;97897.03;4957697;28;20042;-74
2022/09/16 11:49:20;;;;;;;24.33;3.88;;;;;;;36.50;19.43;97901.03;4965637;28;20073;-76
2022/09/16 11:51:58;;;;;;;27.38;3.47;;;;;;;36.47;19.38;97902.47;5017423;28;20018;-77